Weather at McClellan-Palomar Airport

Public forecast

Using degrees Fahrenheit for public forecast. Weather courtesy of forecast.io.

Current aviation weather report (METAR) for McClellan-Palomar Airport

Retrieved 2021/11/27 14:53 UTC (19 minutes ago):

KCRQ 271453Z AUTO 07003KT 10SM CLR 13/M10 A3006 RMK AO2 SLP178 T01331100 53012

Aviation forecast (TAF) for McClellan-Palomar Airport

Retrieved 2021/11/27 12:22 UTC (3 hours ago):

TAF KCRQ 271120Z 2712/2812 VRB04KT P6SM SKC FM272100 26007KT P6SM FEW250 FM280000 VRB04KT P6SM SCT250